createdAt,value
2022-11-10T00:01:28.560Z,98481.97
2022-11-10T00:03:55.662Z,98479.50
2022-11-10T00:06:22.223Z,98484.28
2022-11-10T00:08:48.866Z,98499.41
2022-11-10T00:11:15.562Z,98488.91
2022-11-10T00:14:04.906Z,98494.41
2022-11-10T00:16:49.712Z,98500.22
2022-11-10T00:19:16.221Z,98511.00
2022-11-10T00:21:42.719Z,98505.34
2022-11-10T00:24:09.511Z,98501.06
2022-11-10T00:26:36.040Z,98520.97
2022-11-10T00:29:02.556Z,98516.50
2022-11-10T00:31:29.130Z,98498.53
2022-11-10T00:33:56.152Z,98499.22
2022-11-10T00:36:23.606Z,98519.78
2022-11-10T00:38:51.208Z,98508.00
2022-11-10T00:41:17.707Z,98523.09
2022-11-10T00:43:44.254Z,98522.59
2022-11-10T00:46:13.658Z,98516.59
2022-11-10T00:48:43.832Z,98540.69
2022-11-10T00:51:22.743Z,98539.50
2022-11-10T00:53:50.079Z,98525.38
2022-11-10T00:56:16.884Z,98538.22
2022-11-10T00:58:43.622Z,98533.84
2022-11-10T01:01:13.485Z,98528.69
2022-11-10T01:03:40.532Z,98543.13
2022-11-10T01:06:12.758Z,98558.06
2022-11-10T01:08:40.633Z,98565.00
2022-11-10T01:11:13.008Z,98543.72
2022-11-10T01:13:40.395Z,98566.63
2022-11-10T01:16:08.844Z,98567.41
2022-11-10T01:18:35.671Z,98581.72
2022-11-10T01:21:02.412Z,98573.50
2022-11-10T01:23:29.384Z,98601.72
2022-11-10T01:26:01.334Z,98594.91
2022-11-10T01:28:28.903Z,98601.06
2022-11-10T01:30:58.936Z,98598.34
2022-11-10T01:33:25.612Z,98603.50
2022-11-10T01:35:52.225Z,98599.63
2022-11-10T01:38:18.872Z,98602.28
2022-11-10T01:40:45.498Z,98608.38
2022-11-10T01:43:15.391Z,98608.91
2022-11-10T01:46:02.900Z,98603.56
2022-11-10T01:48:52.506Z,98621.38
2022-11-10T01:51:31.395Z,98621.56
2022-11-10T01:54:01.575Z,98619.88
2022-11-10T01:56:31.483Z,98609.59
2022-11-10T01:59:03.248Z,98609.84
2022-11-10T02:01:30.686Z,98592.44
2022-11-10T02:04:03.739Z,98614.06
2022-11-10T02:06:33.632Z,98615.09
2022-11-10T02:09:00.214Z,98597.94
2022-11-10T02:11:28.563Z,98603.00
2022-11-10T02:13:55.699Z,98623.25
2022-11-10T02:16:23.123Z,98615.47
2022-11-10T02:18:49.848Z,98597.19
2022-11-10T02:21:17.803Z,98592.00
2022-11-10T02:23:47.560Z,98613.63
2022-11-10T02:26:16.977Z,98599.34
2022-11-10T02:28:43.521Z,98595.06
2022-11-10T02:31:10.070Z,98605.38
2022-11-10T02:33:36.907Z,98591.19
2022-11-10T02:36:03.799Z,98592.84
2022-11-10T02:38:30.297Z,98614.84
2022-11-10T02:40:56.934Z,98614.53
2022-11-10T02:43:23.699Z,98599.03
2022-11-10T02:45:50.476Z,98592.84
2022-11-10T02:48:19.849Z,98595.00
2022-11-10T02:50:46.449Z,98591.81
2022-11-10T02:53:13.007Z,98590.25
2022-11-10T02:55:39.546Z,98598.53
2022-11-10T02:58:06.120Z,98586.81
2022-11-10T03:00:32.742Z,98603.19
2022-11-10T03:03:02.032Z,98621.59
2022-11-10T03:05:29.850Z,98625.00
2022-11-10T03:08:01.907Z,98631.28
2022-11-10T03:10:29.925Z,98626.97
2022-11-10T03:12:58.908Z,98637.09
2022-11-10T03:15:25.873Z,98618.97
2022-11-10T03:17:52.657Z,98646.81
2022-11-10T03:20:22.423Z,98639.53
2022-11-10T03:22:51.141Z,98655.91
2022-11-10T03:25:17.796Z,98620.75
2022-11-10T03:27:45.050Z,98628.94
2022-11-10T03:30:11.800Z,98651.16
2022-11-10T03:32:38.285Z,98626.75
2022-11-10T03:35:06.170Z,98659.28
2022-11-10T03:37:32.705Z,98664.56
2022-11-10T03:39:59.189Z,98667.00
2022-11-10T03:42:25.736Z,98665.84
2022-11-10T03:44:52.238Z,98669.66
2022-11-10T03:47:18.798Z,98662.38
2022-11-10T03:49:45.370Z,98670.91
2022-11-10T03:52:11.840Z,98654.81
2022-11-10T03:54:38.413Z,98666.13
2022-11-10T03:57:04.925Z,98673.16
2022-11-10T03:59:31.643Z,98687.41
2022-11-10T04:01:58.264Z,98673.09
2022-11-10T04:04:43.302Z,98673.56
2022-11-10T04:07:32.246Z,98702.72
2022-11-10T04:09:58.775Z,98700.22
2022-11-10T04:12:43.889Z,98705.94
2022-11-10T04:15:30.270Z,98694.59
2022-11-10T04:18:16.990Z,98700.25
2022-11-10T04:20:44.131Z,98712.75
2022-11-10T04:23:30.440Z,98709.88
2022-11-10T04:26:18.340Z,98728.97
2022-11-10T04:28:46.928Z,98723.22
2022-11-10T04:31:14.632Z,98721.91
2022-11-10T04:33:42.073Z,98720.63
2022-11-10T04:36:10.585Z,98702.69
2022-11-10T04:38:37.263Z,98727.28
2022-11-10T04:41:03.992Z,98695.03
2022-11-10T04:43:30.827Z,98721.84
2022-11-10T04:45:57.959Z,98726.00
2022-11-10T04:48:28.170Z,98713.19
2022-11-10T04:50:57.767Z,98725.38
2022-11-10T04:53:27.036Z,98719.13
2022-11-10T04:55:54.840Z,98730.09
2022-11-10T04:58:21.427Z,98732.75
2022-11-10T05:00:47.997Z,98730.56
2022-11-10T05:03:14.950Z,98726.66
2022-11-10T05:05:41.707Z,98711.25
2022-11-10T05:08:09.260Z,98705.56
2022-11-10T05:10:37.456Z,98716.38
2022-11-10T05:13:04.719Z,98728.75
2022-11-10T05:15:32.424Z,98738.06
2022-11-10T05:17:59.793Z,98726.66
2022-11-10T05:20:26.559Z,98725.16
2022-11-10T05:23:12.352Z,98748.13
2022-11-10T05:25:41.086Z,98739.94
2022-11-10T05:28:09.367Z,98753.72
2022-11-10T05:30:36.178Z,98746.28
2022-11-10T05:33:03.262Z,98753.56
2022-11-10T05:35:29.912Z,98751.59
2022-11-10T05:37:56.680Z,98736.16
2022-11-10T05:40:23.681Z,98754.50
2022-11-10T05:42:52.991Z,98751.97
2022-11-10T05:45:35.269Z,98736.69
2022-11-10T05:48:02.598Z,98711.06
2022-11-10T05:50:32.421Z,98743.50
2022-11-10T05:53:02.102Z,98766.06
2022-11-10T05:55:31.503Z,98769.97
2022-11-10T05:57:58.621Z,98750.81
2022-11-10T06:00:30.455Z,98751.25
2022-11-10T06:02:58.737Z,98767.22
2022-11-10T06:05:30.689Z,98781.41
2022-11-10T06:08:00.637Z,98780.88
2022-11-10T06:10:29.578Z,98783.41
2022-11-10T06:12:56.498Z,98787.31
2022-11-10T06:15:23.648Z,98778.97
2022-11-10T06:17:50.690Z,98760.34
2022-11-10T06:20:18.373Z,98785.69
2022-11-10T06:23:01.185Z,98791.41
2022-11-10T06:25:32.489Z,98797.00
2022-11-10T06:28:02.764Z,98792.69
2022-11-10T06:30:33.739Z,98781.84
2022-11-10T06:33:01.789Z,98795.69
2022-11-10T06:35:29.354Z,98782.03
2022-11-10T06:38:06.684Z,98799.84
2022-11-10T06:40:33.699Z,98780.81
2022-11-10T06:43:03.976Z,98801.09
2022-11-10T06:45:30.655Z,98804.16
2022-11-10T06:48:13.230Z,98807.19
2022-11-10T06:50:39.897Z,98805.09
2022-11-10T06:53:06.466Z,98816.22
2022-11-10T06:55:32.999Z,98792.97
2022-11-10T06:57:59.581Z,98797.59
2022-11-10T07:00:27.771Z,98809.09
2022-11-10T07:03:06.472Z,98825.63
2022-11-10T07:05:34.905Z,98833.03
2022-11-10T07:08:19.894Z,98804.50
2022-11-10T07:10:52.566Z,98827.84
2022-11-10T07:13:20.068Z,98799.63
2022-11-10T07:15:47.084Z,98847.84
2022-11-10T07:18:14.387Z,98857.41
2022-11-10T07:20:40.909Z,98855.81
2022-11-10T07:23:08.414Z,98857.91
2022-11-10T07:25:37.027Z,98855.59
2022-11-10T07:28:10.406Z,98863.50
2022-11-10T07:30:36.963Z,98855.47
2022-11-10T07:33:05.870Z,98833.78
2022-11-10T07:35:34.548Z,98857.06
2022-11-10T07:38:12.513Z,98856.38
2022-11-10T07:40:39.458Z,98868.75
2022-11-10T07:43:06.288Z,98862.22
2022-11-10T07:45:35.224Z,98885.19
2022-11-10T07:48:05.767Z,98884.72
2022-11-10T07:50:37.185Z,98882.38
2022-11-10T07:53:11.458Z,98892.75
2022-11-10T07:55:39.932Z,98904.22
2022-11-10T07:58:07.182Z,98901.94
2022-11-10T08:00:35.091Z,98916.94
2022-11-10T08:03:12.258Z,98914.81
2022-11-10T08:05:39.079Z,98911.88
2022-11-10T08:08:09.071Z,98915.56
2022-11-10T08:10:40.028Z,98909.06
2022-11-10T08:13:09.428Z,98902.84
2022-11-10T08:15:39.178Z,98902.31
2022-11-10T08:18:15.040Z,98924.59
2022-11-10T08:20:42.242Z,98924.25
2022-11-10T08:23:09.083Z,98932.66
2022-11-10T08:25:39.327Z,98924.53
2022-11-10T08:28:17.128Z,98932.56
2022-11-10T08:30:45.983Z,98932.78
2022-11-10T08:33:14.699Z,98891.34
2022-11-10T08:35:44.322Z,98941.03
2022-11-10T08:38:14.391Z,98919.88
2022-11-10T08:40:41.852Z,98924.97
2022-11-10T08:43:08.908Z,98933.53
2022-11-10T08:45:40.748Z,98948.59
2022-11-10T08:48:16.928Z,98935.88
2022-11-10T08:50:43.925Z,98946.47
2022-11-10T08:53:15.817Z,98952.34
2022-11-10T08:55:43.501Z,98953.69
2022-11-10T08:58:13.478Z,98961.88
2022-11-10T09:00:40.417Z,98961.94
2022-11-10T09:03:10.950Z,98952.88
2022-11-10T09:05:37.664Z,98955.09
2022-11-10T09:08:07.934Z,98965.16
2022-11-10T09:10:38.129Z,98955.50
2022-11-10T09:13:08.809Z,98959.50
2022-11-10T09:15:38.901Z,98960.34
2022-11-10T09:18:09.732Z,98976.31
2022-11-10T09:20:39.794Z,98968.34
2022-11-10T09:23:14.635Z,98970.50
2022-11-10T09:25:42.075Z,98977.38
2022-11-10T09:28:13.427Z,98974.38
2022-11-10T09:30:40.423Z,98976.03
2022-11-10T09:33:07.401Z,98977.34
2022-11-10T09:35:36.462Z,98968.19
2022-11-10T09:38:04.728Z,98980.63
2022-11-10T09:41:02.957Z,98982.22
2022-11-10T09:43:39.659Z,98976.84
2022-11-10T09:46:18.355Z,98979.47
2022-11-10T09:48:53.203Z,98985.13
2022-11-10T09:51:25.279Z,98981.16
2022-11-10T09:53:56.784Z,98979.81
2022-11-10T09:56:36.880Z,98989.75
2022-11-10T09:59:12.624Z,98973.44
2022-11-10T10:01:45.270Z,98981.59
2022-11-10T10:04:52.088Z,98982.78
2022-11-10T10:07:48.470Z,98987.13
2022-11-10T10:10:21.028Z,98985.78
2022-11-10T10:13:08.781Z,98985.09
2022-11-10T10:15:58.419Z,99000.56
2022-11-10T10:18:36.469Z,98998.28
2022-11-10T10:21:02.914Z,98994.84
2022-11-10T10:24:07.573Z,98991.66
2022-11-10T10:26:32.780Z,98990.63
2022-11-10T10:29:07.642Z,98971.31
2022-11-10T10:31:40.785Z,98981.59
2022-11-10T10:34:16.880Z,98984.03
2022-11-10T10:36:44.507Z,98989.75
2022-11-10T10:39:16.041Z,98990.28
2022-11-10T10:41:46.165Z,98986.56
2022-11-10T10:44:18.743Z,98989.53
2022-11-10T10:46:49.609Z,98998.53
2022-11-10T10:49:31.731Z,98999.53
2022-11-10T10:52:09.930Z,98994.66
2022-11-10T10:54:38.277Z,98990.19
2022-11-10T10:57:25.061Z,98992.16
2022-11-10T10:59:52.318Z,98989.63
2022-11-10T11:02:28.145Z,98992.56
2022-11-10T11:05:17.635Z,98987.56
2022-11-10T11:08:01.527Z,98990.88
2022-11-10T11:10:31.976Z,98996.31
2022-11-10T11:13:25.201Z,98981.97
2022-11-10T11:15:59.765Z,98996.00
2022-11-10T11:18:29.399Z,98990.09
2022-11-10T11:21:00.000Z,98992.31
2022-11-10T11:24:00.857Z,98989.44
2022-11-10T11:26:55.200Z,98976.25
2022-11-10T11:29:58.992Z,98982.50
2022-11-10T11:33:09.495Z,98989.09
2022-11-10T11:35:52.614Z,98988.28
2022-11-10T11:38:53.655Z,98990.72
2022-11-10T11:41:38.813Z,98990.47
2022-11-10T11:44:47.035Z,98977.69
2022-11-10T11:47:41.066Z,98984.03
2022-11-10T11:50:25.071Z,98994.66
2022-11-10T11:53:29.120Z,98990.09
2022-11-10T11:56:38.951Z,98991.28
2022-11-10T11:59:30.352Z,98987.84
2022-11-10T12:02:20.706Z,98964.41
2022-11-10T12:04:58.997Z,98976.31
2022-11-10T12:07:54.093Z,98975.06
2022-11-10T12:10:43.303Z,98977.88
2022-11-10T12:13:42.638Z,98974.09
2022-11-10T12:16:22.129Z,98962.94
2022-11-10T12:19:17.858Z,98973.47
2022-11-10T12:22:19.685Z,98968.31
2022-11-10T12:25:08.653Z,98964.19
2022-11-10T12:27:44.690Z,98982.44
2022-11-10T12:30:14.141Z,98970.84
2022-11-10T12:32:43.369Z,98973.78
2022-11-10T12:35:22.695Z,98965.16
2022-11-10T12:38:00.922Z,98960.59
2022-11-10T12:40:45.424Z,98968.09
2022-11-10T12:43:29.688Z,98955.84
2022-11-10T12:46:06.240Z,98945.59
2022-11-10T12:49:19.415Z,98943.50
2022-11-10T12:51:51.347Z,98942.34
2022-11-10T12:54:20.513Z,98932.44
2022-11-10T12:57:05.815Z,98937.53
2022-11-10T12:59:36.725Z,98946.84
2022-11-10T13:02:24.038Z,98940.47
2022-11-10T13:05:15.457Z,98956.25
2022-11-10T13:07:44.290Z,98961.84
2022-11-10T13:10:31.723Z,98965.50
2022-11-10T13:13:12.954Z,98956.88
2022-11-10T13:15:39.571Z,98965.97
2022-11-10T13:18:09.995Z,98973.34
2022-11-10T13:20:39.517Z,98978.00
2022-11-10T13:23:44.463Z,98974.13
2022-11-10T13:26:32.036Z,98970.22
2022-11-10T13:29:01.144Z,98962.06
2022-11-10T13:31:27.630Z,98973.97
2022-11-10T13:34:28.917Z,98970.16
2022-11-10T13:36:55.800Z,98978.31
2022-11-10T13:39:31.575Z,98973.94
2022-11-10T13:42:19.442Z,98978.13
2022-11-10T13:44:47.777Z,98975.22
2022-11-10T13:47:34.933Z,98993.34
2022-11-10T13:50:11.120Z,98989.66
2022-11-10T13:53:15.264Z,98988.41
2022-11-10T13:56:00.616Z,98988.63
2022-11-10T13:58:31.065Z,98984.84
2022-11-10T14:01:16.719Z,98995.19
2022-11-10T14:03:46.490Z,98990.88
2022-11-10T14:06:27.406Z,98991.44
2022-11-10T14:09:32.182Z,98995.94
2022-11-10T14:12:32.407Z,98998.88
2022-11-10T14:15:40.561Z,98986.22
2022-11-10T14:18:24.966Z,99001.56
2022-11-10T14:20:58.209Z,99012.13
2022-11-10T14:23:34.566Z,98998.88
2022-11-10T14:26:05.546Z,98992.72
2022-11-10T14:28:33.263Z,98986.28
2022-11-10T14:31:00.535Z,98991.50
2022-11-10T14:33:27.668Z,98993.19
2022-11-10T14:35:58.520Z,98992.78
2022-11-10T14:38:39.472Z,98991.97
2022-11-10T14:41:07.131Z,99000.44
2022-11-10T14:43:35.914Z,98991.09
2022-11-10T14:46:04.396Z,98996.50
2022-11-10T14:48:34.099Z,98996.50
2022-11-10T14:51:10.935Z,98991.94
2022-11-10T14:53:47.606Z,99000.19
2022-11-10T14:56:19.724Z,98993.97
2022-11-10T14:58:48.642Z,98992.25
2022-11-10T15:01:38.788Z,98991.00
2022-11-10T15:04:11.218Z,98997.00
2022-11-10T15:06:46.856Z,99003.63
2022-11-10T15:09:27.037Z,99009.72
2022-11-10T15:12:02.502Z,99017.75
2022-11-10T15:14:35.489Z,99019.09
2022-11-10T15:17:02.534Z,99019.88
2022-11-10T15:19:31.857Z,99017.75
2022-11-10T15:22:12.918Z,99032.13
2022-11-10T15:24:47.849Z,99023.81
2022-11-10T15:27:24.434Z,99036.56
2022-11-10T15:29:51.327Z,99034.78
2022-11-10T15:32:23.392Z,99033.38
2022-11-10T15:34:50.878Z,99018.63
2022-11-10T15:37:27.405Z,99031.03
2022-11-10T15:40:30.268Z,99032.06
2022-11-10T15:43:22.871Z,99036.81
2022-11-10T15:45:55.510Z,99034.41
2022-11-10T15:48:23.278Z,99029.25
2022-11-10T15:50:53.496Z,99023.94
2022-11-10T15:53:41.923Z,99023.72
2022-11-10T15:56:17.002Z,99029.94
2022-11-10T15:58:51.832Z,99025.59
2022-11-10T16:01:18.837Z,99026.16
2022-11-10T16:03:45.898Z,99039.53
2022-11-10T16:06:16.394Z,99046.91
2022-11-10T16:08:43.336Z,99043.28
2022-11-10T16:11:21.513Z,99043.66
2022-11-10T16:13:49.770Z,99036.81
2022-11-10T16:16:17.629Z,99037.81
2022-11-10T16:18:44.449Z,99046.47
2022-11-10T16:21:16.500Z,99057.66
2022-11-10T16:23:43.988Z,99053.97
2022-11-10T16:26:15.328Z,99056.91
2022-11-10T16:28:44.204Z,99060.91
2022-11-10T16:31:15.389Z,99065.38
2022-11-10T16:33:41.993Z,99056.75
2022-11-10T16:36:25.337Z,99067.22
2022-11-10T16:38:53.194Z,99051.72
2022-11-10T16:41:19.828Z,99064.00
2022-11-10T16:43:46.495Z,99059.81
2022-11-10T16:46:28.462Z,99071.53
2022-11-10T16:49:00.709Z,99075.66
2022-11-10T16:51:45.603Z,99078.22
2022-11-10T16:54:15.419Z,99061.13
2022-11-10T16:56:42.014Z,99057.94
2022-11-10T16:59:10.602Z,99066.75
2022-11-10T17:01:40.735Z,99095.66
2022-11-10T17:04:13.909Z,99082.53
2022-11-10T17:06:43.728Z,99086.28
2022-11-10T17:09:21.484Z,99095.31
2022-11-10T17:11:48.013Z,99098.38
2022-11-10T17:14:15.734Z,99098.97
2022-11-10T17:16:45.482Z,99101.78
2022-11-10T17:19:23.503Z,99110.59
2022-11-10T17:21:53.987Z,99109.66
2022-11-10T17:24:21.848Z,99122.72
2022-11-10T17:26:48.697Z,99116.00
2022-11-10T17:29:21.149Z,99119.94
2022-11-10T17:31:50.200Z,99123.31
2022-11-10T17:34:16.722Z,99120.00
2022-11-10T17:36:43.461Z,99122.66
2022-11-10T17:39:15.379Z,99120.91
2022-11-10T17:41:41.950Z,99130.28
2022-11-10T17:44:15.815Z,99136.19
2022-11-10T17:46:43.216Z,99137.69
2022-11-10T17:49:11.008Z,99124.19
2022-11-10T17:51:41.510Z,99126.84
2022-11-10T17:54:14.461Z,99138.44
2022-11-10T17:56:41.147Z,99133.72
2022-11-10T17:59:07.620Z,99122.63
2022-11-10T18:01:35.300Z,99133.22
2022-11-10T18:04:01.850Z,99128.63
2022-11-10T18:06:31.087Z,99133.81
2022-11-10T18:08:57.732Z,99128.69
2022-11-10T18:11:24.255Z,99129.69
2022-11-10T18:13:50.763Z,99114.91
2022-11-10T18:16:17.245Z,99130.53
2022-11-10T18:18:43.736Z,99115.78
2022-11-10T18:21:11.282Z,99116.09
2022-11-10T18:23:40.062Z,99119.41
2022-11-10T18:26:10.758Z,99125.41
2022-11-10T18:28:37.266Z,99113.44
2022-11-10T18:31:10.507Z,99122.94
2022-11-10T18:33:37.188Z,99127.13
2022-11-10T18:36:05.954Z,99131.69
2022-11-10T18:38:33.189Z,99132.53
2022-11-10T18:41:22.753Z,99137.72
2022-11-10T18:43:49.336Z,99127.13
2022-11-10T18:46:18.925Z,99126.59
2022-11-10T18:48:46.884Z,99137.72
2022-11-10T18:51:14.867Z,99129.50
2022-11-10T18:53:44.151Z,99136.31
2022-11-10T18:56:14.415Z,99124.88
2022-11-10T18:58:45.153Z,99130.63
2022-11-10T19:01:12.995Z,99128.66
2022-11-10T19:03:39.564Z,99131.28
2022-11-10T19:06:06.337Z,99138.66
2022-11-10T19:08:32.828Z,99125.41
2022-11-10T19:10:59.749Z,99132.13
2022-11-10T19:13:26.571Z,99133.19
2022-11-10T19:15:55.687Z,99134.31
2022-11-10T19:18:22.325Z,99128.84
2022-11-10T19:20:48.807Z,99140.03
2022-11-10T19:23:15.289Z,99122.72
2022-11-10T19:25:44.691Z,99141.13
2022-11-10T19:28:12.050Z,99134.41
2022-11-10T19:30:39.328Z,99146.06
2022-11-10T19:33:05.933Z,99141.91
2022-11-10T19:35:33.188Z,99148.75
2022-11-10T19:37:59.743Z,99156.22
2022-11-10T19:40:47.118Z,99164.72
2022-11-10T19:43:16.662Z,99158.41
2022-11-10T19:45:46.627Z,99154.22
2022-11-10T19:48:15.847Z,99143.72
2022-11-10T19:50:48.270Z,99150.34
2022-11-10T19:53:18.271Z,99144.19
2022-11-10T19:55:47.840Z,99144.34
2022-11-10T19:58:17.714Z,99162.44
2022-11-10T20:00:48.110Z,99166.06
2022-11-10T20:03:17.308Z,99168.44
2022-11-10T20:05:46.983Z,99145.75
2022-11-10T20:08:17.831Z,99171.28
2022-11-10T20:10:50.135Z,99171.84
2022-11-10T20:13:19.751Z,99151.38
2022-11-10T20:15:46.439Z,99163.63
2022-11-10T20:18:14.757Z,99160.28
2022-11-10T20:20:47.314Z,99145.75
2022-11-10T20:23:16.895Z,99179.88
2022-11-10T20:25:45.861Z,99161.63
2022-11-10T20:28:14.975Z,99196.47
2022-11-10T20:30:47.046Z,99159.78
2022-11-10T20:33:17.755Z,99197.28
2022-11-10T20:35:47.041Z,99163.50
2022-11-10T20:38:17.971Z,99208.72
2022-11-10T20:40:47.239Z,99216.44
2022-11-10T20:43:17.226Z,99229.41
2022-11-10T20:45:46.937Z,99229.25
2022-11-10T20:48:17.605Z,99232.09
2022-11-10T20:50:46.945Z,99206.09
2022-11-10T20:53:15.512Z,99227.69
2022-11-10T20:55:53.446Z,99216.75
2022-11-10T20:58:20.420Z,99208.50
2022-11-10T21:00:46.984Z,99200.97
2022-11-10T21:03:15.885Z,99209.81
2022-11-10T21:05:42.378Z,99245.41
2022-11-10T21:08:08.954Z,99216.94
2022-11-10T21:10:35.456Z,99234.44
2022-11-10T21:13:01.963Z,99249.81
2022-11-10T21:15:28.506Z,99248.63
2022-11-10T21:17:55.019Z,99255.34
2022-11-10T21:20:21.569Z,99240.94
2022-11-10T21:22:48.064Z,99245.97
2022-11-10T21:25:20.507Z,99246.34
2022-11-10T21:27:48.043Z,99228.00
2022-11-10T21:30:22.595Z,99259.16
2022-11-10T21:32:49.676Z,99263.03
2022-11-10T21:35:19.759Z,99271.66
2022-11-10T21:37:50.123Z,99247.06
2022-11-10T21:40:19.808Z,99255.31
2022-11-10T21:42:53.924Z,99250.78
2022-11-10T21:45:20.413Z,99226.22
2022-11-10T21:47:50.117Z,99257.41
2022-11-10T21:50:19.746Z,99245.50
2022-11-10T21:52:47.618Z,99228.97
2022-11-10T21:55:14.223Z,99218.50
2022-11-10T21:57:40.759Z,99238.41
2022-11-10T22:00:07.850Z,99241.69
2022-11-10T22:02:34.379Z,99252.81
2022-11-10T22:05:00.897Z,99241.19
2022-11-10T22:07:27.535Z,99229.81
2022-11-10T22:10:14.258Z,99252.81
2022-11-10T22:13:00.765Z,99250.44
2022-11-10T22:15:46.358Z,99237.47
2022-11-10T22:18:34.486Z,99244.06
2022-11-10T22:21:02.270Z,99226.56
2022-11-10T22:23:49.804Z,99225.13
2022-11-10T22:26:17.083Z,99237.59
2022-11-10T22:28:45.233Z,99240.22
2022-11-10T22:31:12.480Z,99239.13
2022-11-10T22:33:40.784Z,99224.22
2022-11-10T22:36:11.239Z,99232.53
2022-11-10T22:38:40.057Z,99210.59
2022-11-10T22:41:30.416Z,99217.91
2022-11-10T22:44:06.332Z,99227.50
2022-11-10T22:46:36.303Z,99226.91
2022-11-10T22:49:06.610Z,99228.22
2022-11-10T22:51:33.885Z,99192.22
2022-11-10T22:54:01.375Z,99206.50
2022-11-10T22:56:29.738Z,99214.53
2022-11-10T22:58:59.891Z,99174.97
2022-11-10T23:01:26.999Z,99198.72
2022-11-10T23:03:53.925Z,99214.22
2022-11-10T23:06:23.451Z,99204.63
2022-11-10T23:08:52.130Z,99192.59
2022-11-10T23:11:23.935Z,99205.22
2022-11-10T23:13:53.694Z,99203.19
2022-11-10T23:16:26.295Z,99209.78
2022-11-10T23:18:54.547Z,99213.38
2022-11-10T23:21:23.213Z,99211.47
2022-11-10T23:23:50.484Z,99208.56
2022-11-10T23:26:22.524Z,99201.50
2022-11-10T23:28:49.070Z,99195.63
2022-11-10T23:31:19.689Z,99205.00
2022-11-10T23:33:47.886Z,99212.66
2022-11-10T23:36:19.486Z,99194.31
2022-11-10T23:38:47.100Z,99189.50
2022-11-10T23:41:19.857Z,99176.19
2022-11-10T23:43:46.569Z,99196.09
2022-11-10T23:46:13.379Z,99170.94
2022-11-10T23:48:40.328Z,99171.88
2022-11-10T23:51:08.162Z,99165.06
2022-11-10T23:53:34.744Z,99199.59
2022-11-10T23:56:03.377Z,99190.47
2022-11-10T23:58:30.607Z,99194.22
